createdAt,value
2018-10-01T00:00:03.474Z,11.36
2018-10-01T00:02:34.452Z,11.35
2018-10-01T00:05:05.982Z,11.32
2018-10-01T00:07:36.968Z,11.28
2018-10-01T00:10:07.750Z,11.25
2018-10-01T00:12:38.765Z,11.13
2018-10-01T00:15:09.599Z,11.15
2018-10-01T00:17:40.964Z,11.07
2018-10-01T00:20:16.409Z,10.53
2018-10-01T00:22:49.788Z,11.02
2018-10-01T00:25:19.664Z,10.94
2018-10-01T00:27:49.535Z,10.88
2018-10-01T00:30:19.385Z,10.85
2018-10-01T00:32:49.182Z,10.80
2018-10-01T00:35:19.090Z,10.74
2018-10-01T00:37:49.320Z,10.63
2018-10-01T00:40:19.208Z,10.58
2018-10-01T00:42:49.788Z,10.54
2018-10-01T00:45:20.630Z,10.51
2018-10-01T00:47:51.508Z,10.52
2018-10-01T00:50:22.391Z,10.49
2018-10-01T00:52:52.885Z,10.42
2018-10-01T00:55:23.549Z,10.27
2018-10-01T00:57:53.445Z,10.15
2018-10-01T01:00:24.926Z,10.23
2018-10-01T01:02:55.738Z,10.19
2018-10-01T01:05:26.550Z,10.09
2018-10-01T01:07:58.294Z,10.01
2018-10-01T01:10:28.670Z,10.09
2018-10-01T01:12:59.684Z,10.06
2018-10-01T01:15:30.452Z,9.81
2018-10-01T01:18:02.113Z,9.87
2018-10-01T01:20:32.719Z,9.84
2018-10-01T01:23:03.668Z,9.83
2018-10-01T01:25:34.495Z,9.74
2018-10-01T01:28:06.153Z,9.72
2018-10-01T01:30:36.681Z,9.62
2018-10-01T01:33:07.642Z,9.48
2018-10-01T01:35:38.493Z,9.46
2018-10-01T01:38:09.449Z,9.48
2018-10-01T01:40:40.734Z,9.41
2018-10-01T01:43:11.621Z,9.41
2018-10-01T01:45:42.434Z,9.39
2018-10-01T01:48:13.822Z,9.36
2018-10-01T01:50:43.609Z,9.33
2018-10-01T01:53:14.788Z,9.30
2018-10-01T01:55:45.789Z,9.27
2018-10-01T01:58:16.618Z,9.25
2018-10-01T02:00:47.474Z,9.21
2018-10-01T02:03:18.431Z,9.17
2018-10-01T02:05:49.702Z,9.03
2018-10-01T02:08:20.586Z,8.83
2018-10-01T02:10:51.381Z,8.82
2018-10-01T02:13:22.976Z,8.81
2018-10-01T02:15:53.602Z,8.79
2018-10-01T02:18:24.575Z,8.85
2018-10-01T02:20:55.836Z,8.88
2018-10-01T02:23:26.700Z,8.87
2018-10-01T02:25:57.668Z,8.76
2018-10-01T02:28:28.649Z,8.78
2018-10-01T02:30:59.548Z,8.72
2018-10-01T02:33:30.500Z,8.49
2018-10-01T02:36:01.801Z,8.46
2018-10-01T02:38:34.037Z,8.47
2018-10-01T02:41:04.098Z,8.51
2018-10-01T02:43:34.943Z,8.54
2018-10-01T02:46:05.804Z,8.52
2018-10-01T02:48:36.877Z,8.42
2018-10-01T02:51:07.917Z,8.20
2018-10-01T02:53:43.922Z,8.19
2018-10-01T02:56:14.139Z,8.20
2018-10-01T02:58:44.657Z,8.24
2018-10-01T03:01:14.630Z,8.28
2018-10-01T03:03:44.548Z,8.29
2018-10-01T03:06:14.851Z,8.30
2018-10-01T03:08:44.698Z,8.29
2018-10-01T03:11:15.555Z,8.28
2018-10-01T03:13:46.418Z,7.54
2018-10-01T03:16:18.133Z,8.19
2018-10-01T03:18:48.679Z,8.18
2018-10-01T03:21:19.744Z,8.13
2018-10-01T03:23:50.611Z,8.09
2018-10-01T03:26:21.574Z,8.01
2018-10-01T03:28:52.517Z,7.87
2018-10-01T03:31:23.606Z,7.42
2018-10-01T03:33:53.910Z,7.41
2018-10-01T03:36:24.851Z,7.32
2018-10-01T03:38:55.691Z,7.23
2018-10-01T03:41:26.569Z,7.24
2018-10-01T03:43:57.518Z,7.34
2018-10-01T03:46:28.874Z,7.41
2018-10-01T03:48:59.664Z,7.42
2018-10-01T03:51:30.621Z,7.50
2018-10-01T03:54:01.437Z,7.56
2018-10-01T03:56:32.810Z,7.56
2018-10-01T03:59:02.892Z,7.57
2018-10-01T04:01:33.189Z,7.57
2018-10-01T04:04:03.847Z,7.57
2018-10-01T04:06:34.620Z,7.56
2018-10-01T04:09:07.316Z,7.52
2018-10-01T04:11:37.794Z,7.50
2018-10-01T04:14:08.600Z,7.48
2018-10-01T04:16:38.808Z,7.44
2018-10-01T04:19:09.732Z,7.41
2018-10-01T04:21:40.530Z,7.28
2018-10-01T04:24:11.422Z,7.34
2018-10-01T04:26:42.669Z,7.30
2018-10-01T04:29:14.889Z,7.26
2018-10-01T04:31:46.092Z,7.23
2018-10-01T04:34:16.756Z,7.19
2018-10-01T04:36:46.881Z,7.15
2018-10-01T04:39:18.637Z,7.11
2018-10-01T04:41:48.818Z,7.09
2018-10-01T04:44:19.782Z,7.05
2018-10-01T04:46:50.633Z,7.01
2018-10-01T04:49:22.219Z,6.98
2018-10-01T04:51:52.961Z,6.95
2018-10-01T04:54:23.803Z,6.92
2018-10-01T04:56:54.709Z,6.91
2018-10-01T04:59:25.641Z,6.88
2018-10-01T05:01:56.526Z,6.87
2018-10-01T05:04:27.498Z,6.76
2018-10-01T05:06:58.433Z,6.78
2018-10-01T05:09:29.831Z,6.81
2018-10-01T05:12:00.892Z,6.78
2018-10-01T05:14:32.365Z,6.79
2018-10-01T05:17:02.578Z,6.80
2018-10-01T05:19:33.532Z,6.83
2018-10-01T05:22:04.493Z,6.84
2018-10-01T05:24:35.698Z,6.85
2018-10-01T05:27:06.629Z,6.87
2018-10-01T05:29:37.800Z,6.88
2018-10-01T05:32:08.743Z,6.89
2018-10-01T05:34:39.700Z,6.89
2018-10-01T05:37:10.575Z,6.89
2018-10-01T05:39:41.457Z,6.90
2018-10-01T05:42:12.358Z,6.93
2018-10-01T05:44:43.857Z,6.99
2018-10-01T05:47:14.600Z,6.99
2018-10-01T05:49:45.992Z,7.04
2018-10-01T05:52:16.557Z,7.06
2018-10-01T05:54:47.520Z,7.05
2018-10-01T05:57:18.498Z,7.10
2018-10-01T05:59:49.522Z,7.00
2018-10-01T06:02:20.882Z,7.18
2018-10-01T06:04:51.742Z,7.29
2018-10-01T06:07:22.598Z,7.34
2018-10-01T06:09:53.523Z,7.43
2018-10-01T06:12:23.731Z,7.47
2018-10-01T06:14:54.974Z,7.58
2018-10-01T06:17:25.774Z,6.87
2018-10-01T06:19:56.907Z,7.72
2018-10-01T06:22:27.573Z,7.73
2018-10-01T06:24:58.611Z,7.90
2018-10-01T06:27:29.496Z,8.02
2018-10-01T06:30:00.447Z,8.16
2018-10-01T06:32:31.335Z,8.27
2018-10-01T06:35:02.789Z,8.44
2018-10-01T06:37:33.627Z,8.55
2018-10-01T06:40:04.956Z,8.68
2018-10-01T06:42:35.588Z,8.80
2018-10-01T06:45:06.608Z,8.94
2018-10-01T06:47:37.479Z,9.07
2018-10-01T06:50:08.940Z,9.20
2018-10-01T06:52:39.562Z,9.23
2018-10-01T06:55:10.474Z,9.42
2018-10-01T06:57:41.798Z,9.62
2018-10-01T07:00:12.967Z,9.72
2018-10-01T07:02:43.848Z,9.94
2018-10-01T07:05:14.796Z,10.04
2018-10-01T07:07:45.601Z,10.20
2018-10-01T07:10:16.434Z,10.35
2018-10-01T07:12:47.714Z,10.53
2018-10-01T07:15:18.676Z,10.65
2018-10-01T07:17:49.477Z,10.78
2018-10-01T07:20:20.397Z,10.94
2018-10-01T07:22:51.745Z,11.03
2018-10-01T07:25:22.606Z,11.10
2018-10-01T07:27:52.446Z,11.19
2018-10-01T07:30:23.925Z,11.35
2018-10-01T07:32:54.545Z,11.44
2018-10-01T07:35:25.848Z,11.56
2018-10-01T07:37:56.614Z,11.69
2018-10-01T07:40:27.526Z,11.87
2018-10-01T07:42:58.400Z,12.06
2018-10-01T07:45:29.782Z,12.23
2018-10-01T07:48:00.552Z,12.41
2018-10-01T07:50:31.917Z,12.58
2018-10-01T07:53:02.604Z,12.66
2018-10-01T07:55:33.233Z,12.74
2018-10-01T07:58:03.714Z,12.85
2018-10-01T08:00:34.958Z,12.97
2018-10-01T08:03:05.578Z,13.14
2018-10-01T08:05:36.381Z,13.17
2018-10-01T08:08:07.767Z,13.27
2018-10-01T08:10:38.682Z,13.36
2018-10-01T08:13:09.434Z,13.48
2018-10-01T08:15:41.023Z,13.69
2018-10-01T08:18:11.573Z,13.75
2018-10-01T08:20:42.410Z,13.87
2018-10-01T08:23:13.361Z,14.04
2018-10-01T08:25:43.901Z,14.14
2018-10-01T08:28:14.539Z,14.24
2018-10-01T08:30:45.577Z,14.50
2018-10-01T08:33:16.365Z,14.64
2018-10-01T08:35:47.818Z,14.80
2018-10-01T08:38:18.677Z,14.94
2018-10-01T08:40:49.716Z,15.18
2018-10-01T08:43:20.522Z,15.35
2018-10-01T08:45:51.668Z,15.52
2018-10-01T08:48:23.233Z,15.75
2018-10-01T08:51:02.475Z,15.84
2018-10-01T08:53:42.830Z,16.02
2018-10-01T08:56:12.501Z,16.17
2018-10-01T08:58:42.568Z,16.34
2018-10-01T09:01:12.356Z,16.48
2018-10-01T09:03:42.391Z,16.55
2018-10-01T09:06:12.515Z,16.65
2018-10-01T09:08:42.164Z,16.77
2018-10-01T09:11:11.974Z,16.95
2018-10-01T09:13:42.429Z,17.07
2018-10-01T09:16:12.225Z,17.24
2018-10-01T09:18:41.806Z,17.54
2018-10-01T09:21:11.480Z,17.65
2018-10-01T09:23:41.065Z,17.81
2018-10-01T09:26:11.234Z,17.87
2018-10-01T09:28:41.025Z,17.95
2018-10-01T09:31:11.280Z,18.03
2018-10-01T09:33:41.127Z,18.04
2018-10-01T09:36:11.084Z,18.21
2018-10-01T09:38:40.743Z,18.31
2018-10-01T09:41:12.294Z,18.23
2018-10-01T09:43:42.531Z,18.04
2018-10-01T09:46:13.192Z,18.02
2018-10-01T09:48:44.285Z,18.06
2018-10-01T09:51:15.454Z,17.96
2018-10-01T09:53:47.236Z,18.04
2018-10-01T09:56:17.526Z,18.16
2018-10-01T09:58:48.180Z,18.07
2018-10-01T10:01:19.459Z,18.16
2018-10-01T10:03:50.354Z,18.10
2018-10-01T10:06:21.337Z,18.03
2018-10-01T10:08:52.442Z,18.07
2018-10-01T10:11:23.281Z,18.09
2018-10-01T10:13:54.558Z,18.01
2018-10-01T10:16:25.442Z,18.19
2018-10-01T10:18:56.074Z,18.27
2018-10-01T10:21:27.434Z,18.31
2018-10-01T10:23:58.514Z,18.49
2018-10-01T10:26:29.272Z,18.53
2018-10-01T10:29:00.454Z,18.65
2018-10-01T10:31:32.230Z,18.76
2018-10-01T10:34:02.506Z,18.98
2018-10-01T10:36:32.201Z,19.19
2018-10-01T10:39:03.533Z,19.32
2018-10-01T10:41:34.457Z,19.56
2018-10-01T10:44:05.590Z,19.75
2018-10-01T10:46:36.413Z,19.81
2018-10-01T10:49:07.466Z,19.85
2018-10-01T10:51:38.635Z,19.93
2018-10-01T10:54:09.228Z,20.09
2018-10-01T10:56:40.520Z,20.18
2018-10-01T10:59:11.234Z,20.49
2018-10-01T11:01:43.263Z,20.57
2018-10-01T11:04:13.571Z,20.49
2018-10-01T11:06:44.249Z,20.53
2018-10-01T11:09:15.418Z,20.63
2018-10-01T11:11:46.580Z,20.76
2018-10-01T11:14:17.626Z,21.06
2018-10-01T11:16:48.705Z,21.02
2018-10-01T11:19:20.549Z,20.93
2018-10-01T11:21:50.603Z,20.49
2018-10-01T11:24:21.367Z,20.75
2018-10-01T11:26:52.620Z,20.53
2018-10-01T11:29:23.418Z,20.18
2018-10-01T11:31:54.340Z,20.20
2018-10-01T11:34:25.260Z,19.95
2018-10-01T11:36:56.193Z,19.80
2018-10-01T11:39:27.481Z,19.79
2018-10-01T11:41:58.615Z,19.57
2018-10-01T11:44:29.195Z,19.58
2018-10-01T11:47:00.864Z,19.66
2018-10-01T11:49:31.724Z,19.37
2018-10-01T11:52:02.468Z,19.44
2018-10-01T11:54:34.184Z,19.31
2018-10-01T11:57:04.546Z,19.22
2018-10-01T11:59:35.317Z,19.30
2018-10-01T12:02:06.592Z,19.37
2018-10-01T12:04:37.201Z,19.56
2018-10-01T12:07:08.542Z,19.53
2018-10-01T12:09:39.660Z,19.52
2018-10-01T12:12:10.414Z,19.45
2018-10-01T12:14:41.815Z,19.33
2018-10-01T12:17:12.541Z,19.24
2018-10-01T12:19:43.202Z,19.05
2018-10-01T12:22:15.147Z,19.05
2018-10-01T12:24:45.491Z,19.04
2018-10-01T12:27:16.294Z,19.12
2018-10-01T12:29:47.519Z,19.16
2018-10-01T12:32:18.462Z,19.35
2018-10-01T12:34:49.161Z,19.62
2018-10-01T12:37:42.583Z,20.02
2018-10-01T12:40:12.503Z,20.19
2018-10-01T12:42:42.507Z,20.46
2018-10-01T12:45:12.583Z,20.76
2018-10-01T12:47:42.422Z,21.07
2018-10-01T12:50:12.438Z,21.33
2018-10-01T12:52:42.330Z,21.20
2018-10-01T12:55:12.321Z,21.48
2018-10-01T12:57:42.215Z,21.54
2018-10-01T13:00:12.530Z,21.49
2018-10-01T13:02:42.150Z,21.30
2018-10-01T13:05:12.561Z,21.13
2018-10-01T13:07:50.551Z,20.79
2018-10-01T13:10:20.364Z,20.64
2018-10-01T13:12:50.261Z,20.59
2018-10-01T13:15:20.492Z,20.57
2018-10-01T13:17:50.548Z,20.58
2018-10-01T13:20:20.528Z,20.77
2018-10-01T13:22:50.105Z,20.76
2018-10-01T13:25:20.399Z,20.86
2018-10-01T13:27:50.277Z,20.86
2018-10-01T13:30:20.133Z,20.67
2018-10-01T13:32:49.905Z,20.32
2018-10-01T13:35:21.226Z,20.17
2018-10-01T13:37:51.335Z,19.89
2018-10-01T13:40:20.945Z,18.88
2018-10-01T13:42:50.675Z,19.59
2018-10-01T13:45:20.336Z,19.65
2018-10-01T13:47:50.211Z,19.76
2018-10-01T13:50:19.910Z,19.69
2018-10-01T13:52:50.484Z,19.46
2018-10-01T13:55:21.866Z,19.34
2018-10-01T13:57:52.453Z,19.13
2018-10-01T14:00:22.250Z,19.08
2018-10-01T14:02:53.788Z,18.84
2018-10-01T14:05:24.499Z,18.71
2018-10-01T14:07:55.185Z,18.68
2018-10-01T14:10:26.643Z,18.78
2018-10-01T14:12:57.264Z,18.63
2018-10-01T14:15:28.238Z,18.49
2018-10-01T14:17:59.679Z,18.43
2018-10-01T14:20:30.422Z,18.29
2018-10-01T14:23:01.714Z,18.25
2018-10-01T14:25:32.468Z,18.30
2018-10-01T14:28:24.854Z,17.88
2018-10-01T14:30:54.638Z,18.21
2018-10-01T14:33:24.487Z,18.06
2018-10-01T14:35:54.525Z,18.05
2018-10-01T14:38:24.528Z,18.08
2018-10-01T14:40:54.514Z,17.90
2018-10-01T14:43:24.706Z,17.81
2018-10-01T14:45:54.316Z,17.82
2018-10-01T14:48:31.356Z,17.70
2018-10-01T14:51:01.629Z,17.69
2018-10-01T14:53:31.713Z,17.73
2018-10-01T14:56:01.760Z,17.75
2018-10-01T14:58:31.720Z,17.74
2018-10-01T15:01:01.720Z,17.80
2018-10-01T15:03:31.965Z,17.70
2018-10-01T15:06:02.611Z,17.60
2018-10-01T15:08:32.909Z,17.42
2018-10-01T15:11:03.011Z,17.23
2018-10-01T15:13:33.314Z,17.05
2018-10-01T15:16:03.504Z,16.98
2018-10-01T15:18:34.038Z,16.82
2018-10-01T15:21:04.218Z,16.56
2018-10-01T15:23:34.260Z,16.54
2018-10-01T15:26:04.066Z,16.45
2018-10-01T15:28:34.892Z,16.31
2018-10-01T15:31:04.782Z,16.26
2018-10-01T15:33:34.494Z,16.25
2018-10-01T15:36:04.368Z,16.21
2018-10-01T15:38:34.259Z,16.16
2018-10-01T15:41:03.951Z,15.92
2018-10-01T15:43:33.711Z,15.94
2018-10-01T15:46:03.398Z,15.82
2018-10-01T15:48:33.896Z,15.71
2018-10-01T15:51:04.498Z,15.68
2018-10-01T15:53:35.388Z,15.60
2018-10-01T15:56:06.545Z,15.53
2018-10-01T15:58:37.425Z,15.31
2018-10-01T16:01:08.961Z,15.22
2018-10-01T16:03:39.669Z,15.17
2018-10-01T16:06:10.630Z,15.19
2018-10-01T16:08:41.543Z,15.00
2018-10-01T16:11:11.256Z,14.89
2018-10-01T16:13:43.038Z,14.67
2018-10-01T16:16:13.725Z,14.62
2018-10-01T16:18:44.759Z,14.51
2018-10-01T16:21:15.489Z,14.51
2018-10-01T16:23:46.357Z,14.45
2018-10-01T16:26:17.758Z,14.36
2018-10-01T16:28:48.580Z,14.15
2018-10-01T16:31:19.366Z,14.22
2018-10-01T16:33:50.854Z,14.19
2018-10-01T16:36:21.692Z,13.98
2018-10-01T16:38:52.450Z,14.07
2018-10-01T16:41:23.657Z,13.95
2018-10-01T16:43:54.632Z,14.00
2018-10-01T16:46:25.323Z,13.90
2018-10-01T16:48:56.729Z,13.89
2018-10-01T16:51:27.414Z,13.81
2018-10-01T16:53:58.774Z,13.89
2018-10-01T16:56:29.954Z,13.86
2018-10-01T16:59:00.623Z,13.86
2018-10-01T17:01:31.324Z,13.83
2018-10-01T17:04:02.885Z,13.84
2018-10-01T17:06:34.209Z,13.71
2018-10-01T17:09:06.091Z,13.76
2018-10-01T17:11:35.913Z,13.75
2018-10-01T17:14:06.708Z,13.66
2018-10-01T17:16:37.466Z,13.63
2018-10-01T17:19:08.605Z,13.67
2018-10-01T17:21:39.348Z,13.68
2018-10-01T17:24:10.876Z,13.74
2018-10-01T17:26:41.632Z,13.80
2018-10-01T17:29:12.461Z,13.73
2018-10-01T17:31:43.641Z,13.77
2018-10-01T17:34:14.440Z,13.64
2018-10-01T17:36:46.525Z,13.69
2018-10-01T17:39:16.411Z,13.72
2018-10-01T17:41:47.762Z,13.75
2018-10-01T17:44:18.736Z,13.72
2018-10-01T17:46:49.554Z,13.71
2018-10-01T17:49:22.395Z,13.65
2018-10-01T17:51:52.467Z,13.64
2018-10-01T17:54:22.533Z,13.62
2018-10-01T17:56:53.598Z,13.46
2018-10-01T17:59:24.425Z,13.50
2018-10-01T18:01:55.866Z,13.55
2018-10-01T18:04:26.705Z,13.43
2018-10-01T18:06:57.740Z,13.53
2018-10-01T18:09:29.447Z,13.57
2018-10-01T18:11:59.464Z,13.61
2018-10-01T18:14:30.424Z,13.62
2018-10-01T18:17:01.887Z,13.62
2018-10-01T18:19:32.774Z,13.66
2018-10-01T18:22:04.949Z,13.65
2018-10-01T18:24:35.357Z,13.63
2018-10-01T18:27:05.366Z,13.61
2018-10-01T18:29:35.629Z,13.61
2018-10-01T18:32:06.647Z,13.64
2018-10-01T18:34:37.681Z,13.56
2018-10-01T18:37:08.644Z,13.55
2018-10-01T18:39:40.491Z,13.48
2018-10-01T18:42:10.676Z,13.43
2018-10-01T18:44:41.739Z,13.41
2018-10-01T18:47:12.804Z,13.37
2018-10-01T18:49:43.844Z,13.34
2018-10-01T18:52:14.895Z,13.28
2018-10-01T18:54:45.766Z,13.23
2018-10-01T18:57:16.836Z,13.22
2018-10-01T18:59:47.811Z,13.19
2018-10-01T19:02:19.503Z,13.19
2018-10-01T19:04:49.532Z,13.18
2018-10-01T19:07:20.730Z,13.17
2018-10-01T19:12:26.668Z,13.15
2018-10-01T19:14:57.388Z,13.14
2018-10-01T19:17:27.536Z,13.16
2018-10-01T19:39:56.073Z,13.26
2018-10-01T19:42:25.902Z,13.16
2018-10-01T19:44:55.861Z,12.99
2018-10-01T19:47:25.920Z,12.96
2018-10-01T19:49:55.898Z,12.95
2018-10-01T19:52:25.740Z,12.92
2018-10-01T19:54:55.696Z,12.83
2018-10-01T19:57:25.863Z,12.84
2018-10-01T19:59:55.833Z,12.82
2018-10-01T20:02:25.795Z,12.77
2018-10-01T20:04:55.756Z,12.76
2018-10-01T20:07:25.704Z,12.66
2018-10-01T20:09:55.806Z,12.54
2018-10-01T20:12:25.681Z,12.57
2018-10-01T20:14:55.919Z,12.48
2018-10-01T20:17:25.902Z,12.49
2018-10-01T20:19:55.907Z,12.44
2018-10-01T20:22:25.939Z,12.42
2018-10-01T20:24:56.003Z,12.42
2018-10-01T20:27:26.155Z,12.43
2018-10-01T20:29:56.024Z,12.46
2018-10-01T20:32:25.893Z,12.42
2018-10-01T20:34:55.979Z,12.38
2018-10-01T20:37:25.990Z,12.37
2018-10-01T20:39:55.837Z,12.35
2018-10-01T20:42:25.812Z,12.35
2018-10-01T20:44:55.861Z,12.30
2018-10-01T20:47:25.816Z,12.23
2018-10-01T20:49:56.007Z,12.21
2018-10-01T20:52:26.237Z,12.22
2018-10-01T20:54:56.042Z,12.17
2018-10-01T20:57:25.831Z,12.20
2018-10-01T20:59:55.753Z,12.13
2018-10-01T21:02:26.693Z,12.13
2018-10-01T21:04:56.723Z,12.14
2018-10-01T21:07:26.698Z,12.14
2018-10-01T21:09:56.677Z,12.11
2018-10-01T21:12:26.788Z,12.11
2018-10-01T21:14:56.739Z,12.10
2018-10-01T21:17:27.633Z,12.05
2018-10-01T21:19:57.646Z,12.01
2018-10-01T21:22:27.919Z,11.99
2018-10-01T21:24:57.951Z,11.95
2018-10-01T21:27:27.942Z,11.92
2018-10-01T21:29:57.866Z,11.94
2018-10-01T21:32:27.663Z,11.92
2018-10-01T21:34:57.786Z,11.89
2018-10-01T21:37:27.649Z,11.89
2018-10-01T21:40:03.306Z,11.87
2018-10-01T21:42:33.173Z,11.93
2018-10-01T21:45:03.443Z,11.95
2018-10-01T21:47:34.124Z,11.91
2018-10-01T21:50:04.264Z,11.91
2018-10-01T21:52:34.209Z,11.91
2018-10-01T21:55:04.084Z,11.87
2018-10-01T21:57:34.907Z,11.79
2018-10-01T22:00:05.260Z,11.87
2018-10-01T22:02:35.005Z,11.90
2018-10-01T22:05:04.911Z,11.87
2018-10-01T22:07:35.193Z,11.85
2018-10-01T22:10:05.611Z,11.73
2018-10-01T22:12:35.765Z,11.78
2018-10-01T22:15:06.206Z,11.76
2018-10-01T22:17:36.206Z,11.72
2018-10-01T22:20:06.202Z,11.71
2018-10-01T22:22:36.092Z,11.66
2018-10-01T22:25:06.184Z,11.63
2018-10-01T22:27:36.039Z,11.59
2018-10-01T22:30:06.044Z,11.62
2018-10-01T22:32:36.114Z,11.67
2018-10-01T22:35:05.952Z,11.68
2018-10-01T22:37:35.901Z,11.63
2018-10-01T22:40:06.074Z,11.66
2018-10-01T22:42:35.976Z,11.61
2018-10-01T22:45:06.376Z,11.63
2018-10-01T22:47:36.420Z,11.56
2018-10-01T22:50:07.133Z,11.55
2018-10-01T22:52:36.997Z,11.51
2018-10-01T22:55:07.193Z,11.52
2018-10-01T22:57:37.297Z,11.48
2018-10-01T23:00:07.167Z,11.49
2018-10-01T23:02:37.231Z,11.50
2018-10-01T23:05:07.572Z,11.47
2018-10-01T23:07:37.804Z,11.46
2018-10-01T23:10:07.836Z,11.45
2018-10-01T23:12:37.792Z,11.46
2018-10-01T23:15:08.100Z,11.43
2018-10-01T23:17:37.973Z,11.45
2018-10-01T23:20:08.054Z,11.41
2018-10-01T23:22:37.993Z,11.05
2018-10-01T23:25:07.907Z,11.35
2018-10-01T23:27:37.822Z,11.34
2018-10-01T23:30:07.796Z,11.39
2018-10-01T23:32:37.894Z,11.34
2018-10-01T23:35:08.087Z,11.30
2018-10-01T23:37:38.626Z,11.27
2018-10-01T23:40:08.568Z,11.28
2018-10-01T23:42:38.733Z,11.27
2018-10-01T23:45:09.285Z,11.22
2018-10-01T23:47:39.248Z,11.23
2018-10-01T23:50:09.219Z,11.28
2018-10-01T23:52:39.159Z,11.29
2018-10-01T23:55:09.707Z,11.26
2018-10-01T23:57:39.567Z,11.26
